Nearby METAR Reports

 

KBDU - Boulder Muni, Colorado, USA
Distance from station: ESE 5mi, 9km
Updated: Sat, 26-May-2018 3:54am MDT
Haze, Clear
Haze, Clear
 Wind from SW
Wind: SW 3 mph , 6 km/h
Temperature: 61°F , 16°C
Dew Point: 36°F , 2°C
Humidity: 39%
Barometer: 29.94 inHg , 1013.9 hPa
Summary: Haze
Clouds: Clear
Visibility: 5 miles , 8 km
2018/05/26 09:54 KBDU 260954Z AUTO 23003KT 5SM HZ CLR 16/02 A2994 RMK AO2
KLMO - Longmont/Vbrand, Colorado, USA
Distance from station: NE 11mi, 18km
Updated: Wed, 31-Dec-1969 5:00pm MST
NOT Current
unable to load KLMO data RC=404 Not Found
unable to load KLMO data RC=404 Not Found
 
 
KEIK - Erie Muni, Colorado, USA
Distance from station: ESE 15mi, 24km
Updated: Sat, 26-May-2018 3:54am MDT
Clear
Clear
 Wind from calm
Wind: Calm
Temperature: 50°F , 10°C
Dew Point: 45°F , 7°C
Humidity: 82%
Barometer: 29.99 inHg , 1015.6 hPa
Clouds: Clear
Visibility: 10 miles , 16 km
2018/05/26 09:54 KEIK 260954Z AUTO 00000KT 10SM CLR 10/07 A2999 RMK AO2 T01040066
KBJC - Broomfield/Jeffc, Colorado, USA
Distance from station: SE 17mi, 27km
Updated: Wed, 31-Dec-1969 5:00pm MST
NOT Current
unable to load KBJC data RC=404 Not Found
unable to load KBJC data RC=404 Not Found
 
 
KFNL - Ft Collins/Lovel, Colorado, USA
Distance from station: NNE 31mi, 50km
Updated: Sat, 26-May-2018 3:56am MDT
Clear
Clear
 Wind from N
Wind: N 8 mph , 13 km/h
Temperature: 54°F , 12°C
Dew Point: 45°F , 7°C
Humidity: 72%
Barometer: 29.94 inHg , 1013.9 hPa
Clouds: Clear
Visibility: 10 miles , 16 km
2018/05/26 09:56 KFNL 260956Z AUTO 36007KT 10SM CLR 12/07 A2994 RMK AO2 SLP076 T01220072
KDEN - Denver (dia), Colorado, USA
Distance from station: ESE 39mi, 62km
Updated: Sat, 26-May-2018 3:53am MDT
Clear
Clear
 Wind from S
Wind: S 10 mph , 17 km/h
Temperature: 55°F , 13°C
Dew Point: 45°F , 7°C
Humidity: 67%
Barometer: 29.95 inHg , 1014.2 hPa
Clouds: Clear
Visibility: 10 miles , 16 km
2018/05/26 09:53 KDEN 260953Z 17009KT 10SM CLR 13/07 A2995 RMK AO2 SLP059 T01330072
 
KBKF - Buckley Angb/Den, Colorado, USA
Distance from station: SE 39mi, 63km
Updated: Sat, 26-May-2018 2:58am MDT
Clear
Clear
 Wind from SSW
Wind: SSW 13 mph , 20 km/h
Temperature: 64°F , 18°C
Dew Point: 46°F , 8°C
Humidity: 52%
Barometer: 29.97 inHg , 1014.9 hPa
Clouds: Clear
Visibility: 10 miles , 16 km
2018/05/26 08:58 KBKF 260858Z 20011KT 10SM CLR 18/08 A2997 RMK AO2A SLP065 T01800083 57018
KAPA - Denver/Arapahoe, Colorado, USA
Distance from station: SE 43mi, 69km
Updated: Sat, 26-May-2018 3:53am MDT
Clear
Clear
 Wind from SSE
Wind: SSE 6 mph , 9 km/h
Temperature: 61°F , 16°C
Dew Point: 46°F , 8°C
Humidity: 59%
Barometer: 29.98 inHg , 1015.2 hPa
Clouds: Clear
Visibility: 10 miles , 16 km
2018/05/26 09:53 KAPA 260953Z 15005KT 10SM CLR 16/08 A2998 RMK AO2 SLP072 T01610083
 
KGXY - Greeley/Weld, Colorado, USA
Distance from station: NE 45mi, 72km
Updated: Sat, 26-May-2018 3:56am MDT
Clear
Clear
 Wind from S
Wind: S 3 mph , 6 km/h
Temperature: 55°F , 13°C
Dew Point: 46°F , 8°C
Humidity: 72%
Barometer: 29.92 inHg , 1013.2 hPa
Clouds: Clear
Visibility: 10 miles , 16 km
2018/05/26 09:56 KGXY 260956Z AUTO 17003KT 10SM CLR 13/08 A2992 RMK AO2 SLP091 T01280083
KFTG - Denver F. Range, Colorado, USA
Distance from station: ESE 46mi, 73km
Updated: Sat, 26-May-2018 4:00am MDT
Clear
Clear
 Wind from SE
Wind: SE 5 mph , 7 km/h
Temperature: 59°F , 15°C
Dew Point: 48°F , 9°C
Humidity: 68%
Barometer: 29.97 inHg , 1014.9 hPa
Clouds: Clear
Visibility: 10 miles , 16 km
2018/05/26 10:00 KFTG 261000Z AUTO 14004KT 10SM CLR 15/09 A2997 RMK AO2 T01540086